Terminal Aerodrome Forecast
Issued by NWS Boston, MA

Home | Current Version | Previous Version | Text Only | Print | Product List | Glossary On
Versions: 1 2 3 4 5 6 7 8 9 10 11 12 13 14 15 16 17 18 19 20 21 22 23 24 25 26 27 28 29 30 31 32 33 34 35 36 37 38 39 40 41
000
FTUS41 KBOX 271740
TAFBOS
TAF
KBOS 271740Z 2718/2824 21015G27KT P6SM SCT050
     FM280200 21016KT P6SM SCT050
     FM280400 22015KT P6SM BKN050
     FM280600 21012KT P6SM BKN015
     FM281400 21012KT P6SM SCT050
     FM281800 21016G27KT P6SM BKN050
     FM282100 25015G25KT P6SM BKN050
     FM282300 26013KT P6SM BKN050=

USA.gov is the U.S. government's official web portal to all federal, state and local government web resources and services.